Time;durP1;ratioP1;P1;durP2;ratioP2;P2;SDS_P1;SDS_P2;PMS_P1;PMS_P2;Temp;Humidity;BMP_temperature;BMP_pressure;BME280_temperature;BME280_humidity;BME280_pressure;Samples;Min_cycle;Max_cycle;Signal;HPM_P1;HPM_P2
2021/05/29 00:02:15;;;;;;;2.65;1.58;;;18.20;64.10;;;;;;10552151;28;20035;-57
2021/05/29 00:07:16;;;;;;;2.47;1.77;;;18.20;64.10;;;;;;10539935;28;20039;-57
2021/05/29 00:12:17;;;;;;;4.03;1.88;;;18.20;64.10;;;;;;10557307;28;20031;-57
2021/05/29 00:17:18;;;;;;;3.03;1.70;;;18.10;64.00;;;;;;10571458;28;20067;-57
2021/05/29 00:22:19;;;;;;;2.15;1.60;;;18.20;64.10;;;;;;10574873;28;20036;-57
2021/05/29 00:27:20;;;;;;;3.08;2.20;;;18.10;64.00;;;;;;10525466;28;20024;-57
2021/05/29 00:32:21;;;;;;;3.08;2.17;;;18.20;64.00;;;;;;10560812;28;20500;-57
2021/05/29 00:37:21;;;;;;;4.03;2.50;;;18.10;64.00;;;;;;10542178;28;20483;-56
2021/05/29 00:42:22;;;;;;;3.33;2.30;;;18.10;64.00;;;;;;10559980;28;20057;-57
2021/05/29 00:47:26;;;;;;;2.78;2.08;;;18.10;64.00;;;;;;10533476;28;20032;-57
2021/05/29 00:52:27;;;;;;;3.47;2.42;;;18.10;64.00;;;;;;10555452;28;20058;-57
2021/05/29 00:57:28;;;;;;;3.42;2.33;;;18.10;63.90;;;;;;10548713;28;20028;-57
2021/05/29 01:02:29;;;;;;;3.10;2.28;;;18.10;63.90;;;;;;10551993;28;20032;-57
2021/05/29 01:07:29;;;;;;;3.08;2.42;;;18.10;63.90;;;;;;10545564;28;20160;-57
2021/05/29 01:12:31;;;;;;;4.13;2.63;;;18.10;63.90;;;;;;10548651;28;20051;-57
2021/05/29 01:17:31;;;;;;;2.58;2.10;;;18.10;63.90;;;;;;10556808;28;20416;-57
2021/05/29 01:22:46;;;;;;;2.97;2.53;;;18.00;63.80;;;;;;10535795;28;20119;-57
2021/05/29 01:27:57;;;;;;;3.10;2.13;;;18.00;63.80;;;;;;10551194;28;20028;-57
2021/05/29 01:33:00;;;;;;;7.72;2.78;;;18.00;63.80;;;;;;10564126;28;20341;-57
2021/05/29 01:38:01;;;;;;;3.65;2.20;;;18.00;63.80;;;;;;10521864;28;20108;-57
2021/05/29 01:43:02;;;;;;;3.15;2.15;;;18.00;63.80;;;;;;10546010;28;20032;-57
2021/05/29 01:48:06;;;;;;;4.63;2.47;;;18.00;63.80;;;;;;10539630;28;20495;-57
2021/05/29 01:53:06;;;;;;;3.55;2.28;;;18.00;63.80;;;;;;10548191;28;20059;-57
2021/05/29 01:58:07;;;;;;;2.67;2.20;;;18.00;63.80;;;;;;10554620;28;20056;-57
2021/05/29 02:03:08;;;;;;;3.63;2.60;;;18.00;63.70;;;;;;10571500;28;20036;-57
2021/05/29 02:08:12;;;;;;;2.60;1.80;;;18.00;63.70;;;;;;10538913;28;20082;-57
2021/05/29 02:13:40;;;;;;;3.65;2.20;;;18.00;63.70;;;;;;10548123;28;20425;-56
2021/05/29 02:18:42;;;;;;;2.47;2.03;;;18.00;63.70;;;;;;10544461;28;20046;-57
2021/05/29 02:23:46;;;;;;;3.42;2.38;;;18.00;63.70;;;;;;10565537;28;20023;-57
2021/05/29 02:28:56;;;;;;;2.80;1.83;;;18.00;63.70;;;;;;10551954;28;20391;-57
2021/05/29 02:33:56;;;;;;;3.28;2.25;;;18.00;63.70;;;;;;10556344;28;20024;-57
2021/05/29 02:38:57;;;;;;;3.45;2.25;;;18.00;63.70;;;;;;10546781;28;20079;-57
2021/05/29 02:43:58;;;;;;;2.88;2.20;;;17.90;63.60;;;;;;10558633;28;20104;-57
2021/05/29 02:48:58;;;;;;;3.30;2.00;;;17.90;63.60;;;;;;10538206;28;20115;-57
2021/05/29 02:53:59;;;;;;;4.93;3.03;;;17.90;63.60;;;;;;10545648;28;20032;-57
2021/05/29 02:59:00;;;;;;;4.80;2.38;;;17.90;63.60;;;;;;10553091;28;20364;-57
2021/05/29 03:04:01;;;;;;;3.53;2.20;;;17.90;63.60;;;;;;10560693;28;20062;-57
2021/05/29 03:09:03;;;;;;;3.40;2.50;;;17.90;63.60;;;;;;10515239;28;20073;-57
2021/05/29 03:14:04;;;;;;;3.17;2.38;;;17.90;63.50;;;;;;10545649;28;20116;-56
2021/05/29 03:19:05;;;;;;;3.35;2.40;;;17.90;63.50;;;;;;10542217;28;20472;-57
2021/05/29 03:24:07;;;;;;;2.97;2.08;;;17.90;63.50;;;;;;10567537;28;20119;-57
2021/05/29 03:29:08;;;;;;;2.33;1.60;;;17.90;64.10;;;;;;10563620;28;20479;-57
2021/05/29 03:34:10;;;;;;;2.85;2.15;;;17.80;63.40;;;;;;10564032;28;20032;-56
2021/05/29 03:39:10;;;;;;;3.10;1.83;;;17.90;63.40;;;;;;10568911;28;20465;-57
2021/05/29 03:44:11;;;;;;;2.55;1.90;;;17.90;63.40;;;;;;10565128;28;20035;-57
2021/05/29 03:49:12;;;;;;;3.17;2.00;;;17.80;63.40;;;;;;10565994;28;20086;-57
2021/05/29 03:54:13;;;;;;;3.13;2.63;;;17.80;63.30;;;;;;10545734;28;20476;-57
2021/05/29 03:59:15;;;;;;;3.38;2.15;;;17.80;63.30;;;;;;10563522;28;20032;-57
2021/05/29 04:04:15;;;;;;;3.42;2.25;;;17.80;63.30;;;;;;10543312;28;20113;-57
2021/05/29 04:09:16;;;;;;;4.32;2.78;;;17.80;63.30;;;;;;10560673;28;20036;-57
2021/05/29 04:14:17;;;;;;;3.50;1.92;;;17.80;63.30;;;;;;10543233;28;20059;-57
2021/05/29 04:19:18;;;;;;;3.55;2.25;;;17.80;63.20;;;;;;10556049;28;20036;-57
2021/05/29 04:24:18;;;;;;;2.50;1.73;;;17.80;63.20;;;;;;10543645;28;20031;-57
2021/05/29 04:29:19;;;;;;;3.45;2.00;;;17.80;63.20;;;;;;10541139;28;20074;-56
2021/05/29 04:34:20;;;;;;;2.05;1.75;;;17.80;63.20;;;;;;10571361;28;20038;-56
2021/05/29 04:39:21;;;;;;;2.72;2.00;;;17.80;63.20;;;;;;10562320;28;20122;-57
2021/05/29 04:44:22;;;;;;;4.78;2.30;;;17.70;63.20;;;;;;10545474;28;20023;-57
2021/05/29 04:49:23;;;;;;;2.90;2.13;;;17.80;63.20;;;;;;10581174;28;20096;-56
2021/05/29 04:54:24;;;;;;;2.67;2.00;;;17.70;63.20;;;;;;10583841;28;20062;-57
2021/05/29 04:59:25;;;;;;;3.85;2.20;;;17.70;63.20;;;;;;10549921;28;20103;-57
2021/05/29 05:04:26;;;;;;;3.05;2.08;;;17.70;63.20;;;;;;10567121;28;20588;-57
2021/05/29 05:09:26;;;;;;;2.72;1.92;;;17.70;63.20;;;;;;10545916;28;20020;-57
2021/05/29 05:14:27;;;;;;;4.40;2.30;;;17.70;63.30;;;;;;10543423;28;20036;-56
2021/05/29 05:19:28;;;;;;;12.45;3.45;;;17.70;64.30;;;;;;10567360;28;20074;-55
2021/05/29 05:24:28;;;;;;;10.63;2.72;;;17.80;65.10;;;;;;10560605;28;20092;-59
2021/05/29 05:29:29;;;;;;;7.13;2.50;;;17.80;65.90;;;;;;10550418;28;20065;-57
2021/05/29 05:34:30;;;;;;;8.70;3.00;;;17.80;65.60;;;;;;10562869;28;20513;-57
2021/05/29 05:39:30;;;;;;;8.77;3.17;;;17.90;65.70;;;;;;10566902;28;20508;-57
2021/05/29 05:44:31;;;;;;;10.60;3.50;;;17.90;65.80;;;;;;10539428;28;20165;-56
2021/05/29 05:49:32;;;;;;;5.72;2.90;;;17.90;66.00;;;;;;10556122;28;20505;-57
2021/05/29 05:54:33;;;;;;;10.73;3.25;;;17.90;65.70;;;;;;10539257;28;20464;-57
2021/05/29 05:59:33;;;;;;;13.32;3.38;;;17.90;65.90;;;;;;10538628;28;20043;-54
2021/05/29 06:04:34;;;;;;;7.63;2.50;;;17.90;66.10;;;;;;10551488;28;20028;-56
2021/05/29 06:09:35;;;;;;;19.48;4.10;;;17.90;66.00;;;;;;10568272;28;20028;-57
2021/05/29 06:19:56;;;;;;;6.53;3.57;;;17.90;65.90;;;;;;10539248;28;20036;-55
2021/05/29 06:24:57;;;;;;;11.48;3.55;;;17.90;65.80;;;;;;10553318;28;20277;-54
2021/05/29 06:29:57;;;;;;;8.68;2.83;;;17.80;65.70;;;;;;10530703;28;20039;-56
2021/05/29 06:34:58;;;;;;;9.25;3.00;;;17.80;65.60;;;;;;10555524;28;20441;-56
2021/05/29 06:39:59;;;;;;;14.98;3.50;;;17.80;65.60;;;;;;10542466;28;20127;-57
2021/05/29 06:45:00;;;;;;;9.52;3.17;;;17.80;65.90;;;;;;10543563;28;20049;-57
2021/05/29 06:50:01;;;;;;;10.90;3.30;;;17.80;66.00;;;;;;10549876;28;20028;-56
2021/05/29 06:58:38;;;;;;;14.38;4.13;;;17.80;65.80;;;;;;10556031;28;20089;-54
2021/05/29 07:00:29;;;;;;;8.55;3.45;;;17.80;65.80;;;;;;10533805;28;20048;-56
2021/05/29 07:05:30;;;;;;;12.45;4.25;;;17.80;66.00;;;;;;10547254;28;20475;-56
2021/05/29 07:10:31;;;;;;;8.73;3.28;;;17.80;66.20;;;;;;10554714;28;20111;-56
2021/05/29 07:15:36;;;;;;;10.30;3.80;;;17.80;66.10;;;;;;10564011;28;20062;-55
2021/05/29 07:20:38;;;;;;;12.35;3.60;;;17.90;66.50;;;;;;10571052;28;20464;-57
2021/05/29 07:25:41;;;;;;;17.85;4.05;;;17.90;66.80;;;;;;10571144;28;20036;-56
2021/05/29 07:30:43;;;;;;;13.57;3.65;;;17.90;66.20;;;;;;10568288;28;20054;-56
2021/05/29 07:35:46;;;;;;;16.50;3.90;;;17.90;66.10;;;;;;10568302;28;20038;-55
2021/05/29 07:40:46;;;;;;;19.25;3.70;;;18.00;66.00;;;;;;10573394;28;20036;-55
2021/05/29 07:45:47;;;;;;;8.73;3.70;;;17.90;65.80;;;;;;10545027;28;20035;-55
2021/05/29 07:50:58;;;;;;;12.50;4.22;;;17.90;65.80;;;;;;10564095;28;20035;-57
2021/05/29 07:56:01;;;;;;;7.95;3.30;;;18.00;65.80;;;;;;10567940;28;20401;-58
2021/05/29 08:01:03;;;;;;;7.88;3.30;;;18.00;65.70;;;;;;10556130;28;20657;-57
2021/05/29 08:06:08;;;;;;;10.40;4.25;;;18.00;65.50;;;;;;10543314;28;20044;-57
2021/05/29 08:11:18;;;;;;;10.63;3.42;;;18.00;65.50;;;;;;10571415;28;20035;-56
2021/05/29 08:16:21;;;;;;;10.27;2.97;;;18.00;65.40;;;;;;10548232;28;20043;-58
2021/05/29 08:21:23;;;;;;;8.05;3.38;;;18.00;65.40;;;;;;10539579;28;20032;-58
2021/05/29 08:26:23;;;;;;;6.97;4.03;;;18.00;65.30;;;;;;10553777;28;20027;-57
2021/05/29 08:31:24;;;;;;;8.38;3.45;;;18.00;65.30;;;;;;10556349;28;20143;-57
2021/05/29 08:36:26;;;;;;;9.13;2.95;;;18.00;65.20;;;;;;10550620;28;20101;-56
2021/05/29 08:41:27;;;;;;;5.43;3.28;;;18.00;65.20;;;;;;10539764;28;20051;-56
2021/05/29 08:46:27;;;;;;;6.65;3.63;;;18.00;65.10;;;;;;10543203;28;20432;-55
2021/05/29 08:51:28;;;;;;;9.50;3.90;;;18.00;65.10;;;;;;10549831;28;20031;-56
2021/05/29 08:56:29;;;;;;;5.78;3.25;;;18.00;65.10;;;;;;10536503;28;20040;-56
2021/05/29 09:01:30;;;;;;;6.65;3.40;;;18.00;65.00;;;;;;10569942;28;20039;-55
2021/05/29 09:06:31;;;;;;;5.13;3.50;;;18.00;65.10;;;;;;10534777;28;20032;-56
2021/05/29 09:11:52;;;;;;;10.75;3.50;;;18.10;65.20;;;;;;10553776;28;20069;-53
2021/05/29 09:17:19;;;;;;;8.52;4.93;;;18.10;65.20;;;;;;10540407;28;20093;-57
2021/05/29 09:22:23;;;;;;;7.57;3.75;;;18.10;65.20;;;;;;10557690;28;20039;-57
2021/05/29 09:27:24;;;;;;;9.60;4.18;;;18.10;65.20;;;;;;10546523;28;20028;-57
2021/05/29 09:32:25;;;;;;;7.75;4.38;;;18.10;65.10;;;;;;10540192;28;20526;-58
2021/05/29 09:37:28;;;;;;;6.78;3.60;;;18.10;65.10;;;;;;10537851;28;20565;-58
2021/05/29 09:42:39;;;;;;;11.93;3.60;;;18.10;65.10;;;;;;10542942;28;20059;-57
2021/05/29 09:47:40;;;;;;;8.02;4.20;;;18.10;65.20;;;;;;10546654;28;20102;-57
2021/05/29 09:52:42;;;;;;;6.50;3.08;;;18.10;65.20;;;;;;10547314;28;20150;-58
2021/05/29 09:57:57;;;;;;;9.27;3.33;;;18.10;65.20;;;;;;10560391;28;20104;-58
2021/05/29 10:03:03;;;;;;;6.35;4.22;;;18.10;65.20;;;;;;10546269;28;20031;-57
2021/05/29 10:08:05;;;;;;;5.63;3.45;;;18.10;65.30;;;;;;10527781;28;20438;-57
2021/05/29 10:13:06;;;;;;;6.35;3.58;;;18.10;65.30;;;;;;10534561;28;20032;-58
2021/05/29 10:18:09;;;;;;;6.50;3.00;;;18.00;65.30;;;;;;10560454;28;20032;-57
2021/05/29 10:23:10;;;;;;;6.70;3.40;;;18.10;65.40;;;;;;10537415;28;20024;-58
2021/05/29 10:28:13;;;;;;;5.88;3.53;;;18.10;65.40;;;;;;10532151;28;20028;-57
2021/05/29 10:33:16;;;;;;;6.00;3.58;;;18.10;65.40;;;;;;10571332;28;20043;-58
2021/05/29 10:38:20;;;;;;;10.00;4.70;;;18.10;65.40;;;;;;10574145;28;20138;-58
2021/05/29 10:43:31;;;;;;;5.32;3.30;;;18.10;65.40;;;;;;10556983;28;20032;-58
2021/05/29 10:48:51;;;;;;;6.82;3.35;;;18.10;65.40;;;;;;10582525;28;20103;-58
2021/05/29 10:53:55;;;;;;;5.70;3.13;;;18.10;65.40;;;;;;10582146;28;20070;-57
2021/05/29 10:59:11;;;;;;;6.78;3.40;;;18.10;65.50;;;;;;10581686;28;20096;-56
2021/05/29 11:04:12;;;;;;;5.97;3.28;;;18.10;65.50;;;;;;10581702;28;20031;-58
2021/05/29 11:09:14;;;;;;;5.22;3.13;;;18.10;65.50;;;;;;10562904;28;20035;-58
2021/05/29 11:14:54;;;;;;;10.75;4.82;;;18.20;65.50;;;;;;10581006;28;20031;-58
2021/05/29 11:20:13;;;;;;;4.85;3.33;;;18.20;65.50;;;;;;10579779;28;20036;-57
2021/05/29 11:25:18;;;;;;;5.93;3.80;;;18.20;65.50;;;;;;10557350;28;20035;-58
2021/05/29 11:30:32;;;;;;;4.70;3.10;;;18.20;65.50;;;;;;10540674;28;20035;-58
2021/05/29 11:35:47;;;;;;;5.85;3.22;;;18.20;65.40;;;;;;10566809;28;20037;-57
2021/05/29 11:40:58;;;;;;;5.38;2.65;;;18.20;65.50;;;;;;10579674;28;20051;-58
2021/05/29 11:46:02;;;;;;;4.88;2.65;;;18.30;65.50;;;;;;10538770;28;20028;-58
2021/05/29 11:51:12;;;;;;;5.75;3.30;;;18.30;65.40;;;;;;10537404;28;20036;-57
2021/05/29 11:56:20;;;;;;;;;;;18.30;65.40;;;;;;10537905;28;20476;-57
2021/05/29 12:01:27;;;;;;;3.85;2.65;;;18.40;65.40;;;;;;10568282;28;19938;-51
2021/05/29 12:06:56;;;;;;;4.97;3.20;;;18.40;65.40;;;;;;10539171;28;20031;-54
2021/05/29 12:12:03;;;;;;;5.30;3.33;;;18.40;65.30;;;;;;10543983;28;20036;-47
2021/05/29 12:17:06;;;;;;;5.80;3.05;;;18.40;65.30;;;;;;10560146;28;20055;-47
2021/05/29 12:22:16;;;;;;;4.55;2.92;;;18.40;65.30;;;;;;10552474;28;20032;-51
2021/05/29 12:27:25;;;;;;;12.02;4.18;;;18.40;65.30;;;;;;10538374;28;20043;-50
2021/05/29 12:32:45;;;;;;;9.20;3.60;;;18.50;65.70;;;;;;10560912;28;20082;-50
2021/05/29 12:37:46;;;;;;;7.97;3.40;;;18.50;65.40;;;;;;10556414;28;20492;-50
2021/05/29 12:42:52;;;;;;;7.03;3.17;;;18.50;65.20;;;;;;10551156;28;20095;-50
2021/05/29 12:48:03;;;;;;;8.23;3.22;;;18.60;65.30;;;;;;10551972;28;20448;-47
2021/05/29 12:53:16;;;;;;;4.15;2.92;;;18.60;65.20;;;;;;10543084;28;20480;-50
2021/05/29 12:58:24;;;;;;;5.88;3.75;;;18.60;65.20;;;;;;10557695;28;20429;-49
2021/05/29 13:14:14;;;;;;;5.57;3.13;;;18.60;64.90;;;;;;10518290;28;20059;-48
2021/05/29 13:19:15;;;;;;;8.63;3.72;;;18.60;64.90;;;;;;10538495;28;20107;-48
2021/05/29 13:24:55;;;;;;;7.07;3.22;;;18.60;65.00;;;;;;10552158;28;20035;-49
2021/05/29 13:30:03;;;;;;;4.60;2.70;;;18.60;64.80;;;;;;10551056;28;20042;-49
2021/05/29 13:35:06;;;;;;;6.88;2.78;;;18.60;64.70;;;;;;10554745;28;20026;-50
2021/05/29 13:40:09;;;;;;;5.95;3.45;;;18.60;64.70;;;;;;10569629;28;20036;-49
2021/05/29 13:45:21;;;;;;;4.65;3.17;;;18.70;64.70;;;;;;10539362;28;20024;-49
2021/05/29 13:50:25;;;;;;;6.25;3.17;;;18.70;64.70;;;;;;10553377;28;20040;-49
2021/05/29 13:55:26;;;;;;;5.65;3.65;;;18.70;64.70;;;;;;10581703;28;20037;-55
2021/05/29 14:00:27;;;;;;;6.80;3.22;;;18.70;64.70;;;;;;10581387;28;20016;-49
2021/05/29 14:05:28;;;;;;;5.85;3.20;;;18.70;64.60;;;;;;10581227;28;20020;-50
2021/05/29 14:10:31;;;;;;;6.30;3.28;;;18.70;64.60;;;;;;10581283;28;20027;-52
2021/05/29 14:15:31;;;;;;;6.32;3.22;;;18.70;64.80;;;;;;10569918;28;20922;-52
2021/05/29 14:20:32;;;;;;;3.70;2.55;;;18.70;64.80;;;;;;10524895;28;20039;-53
2021/05/29 14:25:33;;;;;;;3.83;3.15;;;18.70;64.80;;;;;;10566699;28;20024;-52
2021/05/29 14:30:34;;;;;;;4.40;3.38;;;18.60;64.90;;;;;;10556935;28;20395;-54
2021/05/29 14:35:34;;;;;;;4.05;3.15;;;18.60;64.90;;;;;;10531509;28;20032;-53
2021/05/29 14:40:35;;;;;;;3.80;2.78;;;18.70;65.00;;;;;;10531473;28;20077;-52
2021/05/29 14:45:36;;;;;;;4.95;2.95;;;18.60;64.90;;;;;;10536867;28;20360;-53
2021/05/29 14:50:48;;;;;;;3.72;2.67;;;18.60;65.00;;;;;;10537955;28;20031;-48
2021/05/29 14:55:49;;;;;;;5.88;2.83;;;18.60;65.00;;;;;;10563534;28;20028;-50
2021/05/29 15:00:50;;;;;;;7.57;3.42;;;18.60;65.00;;;;;;10533461;28;20032;-52
2021/05/29 15:05:51;;;;;;;4.75;3.03;;;18.60;65.10;;;;;;10529142;28;20059;-54
2021/05/29 15:10:52;;;;;;;4.75;3.67;;;18.60;65.10;;;;;;10536395;28;20124;-50
2021/05/29 15:15:52;;;;;;;4.68;2.92;;;18.60;65.00;;;;;;10568429;28;20028;-50
2021/05/29 15:21:14;;;;;;;4.32;2.80;;;18.60;65.10;;;;;;10552608;28;20064;-49
2021/05/29 15:26:23;;;;;;;4.47;2.53;;;18.60;65.10;;;;;;10537548;28;20043;-50
2021/05/29 15:31:23;;;;;;;5.47;2.67;;;18.60;65.20;;;;;;10559523;28;20511;-49
2021/05/29 15:36:24;;;;;;;4.57;2.95;;;18.60;65.10;;;;;;10566813;28;20039;-47
2021/05/29 15:41:25;;;;;;;6.05;2.85;;;18.60;65.20;;;;;;10586295;28;20138;-49
2021/05/29 15:46:27;;;;;;;4.28;2.90;;;18.60;65.10;;;;;;10550698;28;20020;-46
2021/05/29 15:51:28;;;;;;;13.48;3.10;;;18.60;65.20;;;;;;10560955;28;20471;-49
2021/05/29 15:56:28;;;;;;;7.05;3.28;;;18.60;65.20;;;;;;10568872;28;20039;-52
2021/05/29 16:01:29;;;;;;;4.10;2.85;;;18.70;65.10;;;;;;10525237;28;20032;-52
2021/05/29 16:06:30;;;;;;;4.22;2.80;;;18.70;64.80;;;;;;10543698;28;20028;-52
2021/05/29 16:11:34;;;;;;;7.60;2.78;;;18.70;64.80;;;;;;10552714;28;20039;-47
2021/05/29 16:16:34;;;;;;;8.80;2.97;;;18.70;64.60;;;;;;10543477;28;20054;-49
2021/05/29 16:21:35;;;;;;;5.22;2.80;;;18.60;64.40;;;;;;10549343;28;20027;-49
2021/05/29 16:26:36;;;;;;;4.60;3.47;;;18.60;64.20;;;;;;10569455;28;20031;-46
2021/05/29 16:31:38;;;;;;;4.07;2.90;;;18.60;64.20;;;;;;10559563;28;20062;-46
2021/05/29 16:36:39;;;;;;;6.53;2.97;;;18.70;64.30;;;;;;10551212;28;20368;-49
2021/05/29 16:41:42;;;;;;;4.32;2.88;;;18.60;64.30;;;;;;10566272;28;20079;-50
2021/05/29 16:46:43;;;;;;;3.50;2.50;;;18.60;64.20;;;;;;10543978;28;20062;-47
2021/05/29 16:51:44;;;;;;;3.95;2.67;;;18.60;64.20;;;;;;10547648;28;20545;-48
2021/05/29 16:56:45;;;;;;;4.90;2.40;;;18.60;64.20;;;;;;10566337;28;20035;-47
2021/05/29 17:01:45;;;;;;;5.50;2.75;;;18.60;64.20;;;;;;10567585;28;20157;-52
2021/05/29 17:06:46;;;;;;;9.25;3.00;;;18.60;64.00;;;;;;10538274;28;20107;-49
2021/05/29 17:11:47;;;;;;;5.55;2.95;;;18.60;64.00;;;;;;10542268;28;20027;-51
2021/05/29 17:16:47;;;;;;;6.43;3.58;;;18.60;64.00;;;;;;10564463;28;20055;-51
2021/05/29 17:21:48;;;;;;;6.63;3.60;;;18.60;64.00;;;;;;10548586;28;20106;-51
2021/05/29 17:26:49;;;;;;;4.28;2.90;;;18.60;64.00;;;;;;10562012;28;20070;-53
2021/05/29 17:31:50;;;;;;;7.43;3.55;;;18.60;64.00;;;;;;10562870;28;20103;-49
2021/05/29 17:36:51;;;;;;;10.00;3.40;;;18.60;64.00;;;;;;10563225;28;20036;-51
2021/05/29 17:41:51;;;;;;;6.28;3.50;;;18.60;65.00;;;;;;10544009;28;20031;-50
2021/05/29 17:46:52;;;;;;;8.50;3.33;;;18.70;64.70;;;;;;10564271;28;20375;-51
2021/05/29 17:51:53;;;;;;;5.75;3.10;;;18.70;65.40;;;;;;10573572;28;20111;-48
2021/05/29 17:56:54;;;;;;;9.00;3.70;;;18.70;65.00;;;;;;10539921;28;20364;-51
2021/05/29 18:01:54;;;;;;;5.53;2.80;;;18.70;64.90;;;;;;10547357;28;20048;-51
2021/05/29 18:06:55;;;;;;;4.13;2.80;;;18.70;64.90;;;;;;10561343;28;20196;-49
2021/05/29 18:11:56;;;;;;;6.15;3.22;;;18.70;65.00;;;;;;10566334;28;20110;-52
2021/05/29 18:16:56;;;;;;;3.70;2.30;;;18.70;64.90;;;;;;10547139;28;20534;-53
2021/05/29 18:21:57;;;;;;;5.72;3.08;;;18.70;64.90;;;;;;10565134;28;20055;-51
2021/05/29 18:26:58;;;;;;;5.60;3.20;;;18.70;65.00;;;;;;10570359;28;20055;-51
2021/05/29 18:31:58;;;;;;;5.65;3.17;;;18.70;65.00;;;;;;10551836;28;20729;-52
2021/05/29 18:42:15;;;;;;;4.85;2.88;;;18.70;65.00;;;;;;10560341;28;20403;-51
2021/05/29 18:47:15;;;;;;;4.70;2.97;;;18.70;65.00;;;;;;10541259;28;20027;-52
2021/05/29 18:52:16;;;;;;;6.00;2.80;;;18.70;65.20;;;;;;10534587;28;20085;-48
2021/05/29 18:57:17;;;;;;;6.22;3.10;;;18.70;64.80;;;;;;10551338;28;20473;-48
2021/05/29 19:13:03;;;;;;;7.57;3.77;;;18.70;65.10;;;;;;10457861;28;20481;-53
2021/05/29 19:18:04;;;;;;;5.85;3.10;;;18.70;64.90;;;;;;10542860;28;20126;-52
2021/05/29 19:23:09;;;;;;;6.97;3.45;;;18.70;64.80;;;;;;10567760;28;20376;-53
2021/05/29 19:28:12;;;;;;;5.32;3.33;;;18.60;65.40;;;;;;10571558;28;20034;-52
2021/05/29 20:26:11;;;;;;;4.82;3.00;;;18.60;64.90;;;;;;10574566;28;20040;-50
2021/05/29 20:31:15;;;;;;;4.30;2.85;;;18.60;65.00;;;;;;10571401;28;20070;-50
2021/05/29 20:36:16;;;;;;;5.20;3.30;;;18.60;65.00;;;;;;10542640;28;20461;-49
2021/05/29 20:41:18;;;;;;;4.45;2.90;;;18.60;65.00;;;;;;10564370;28;20040;-51
2021/05/29 20:46:19;;;;;;;5.25;3.22;;;18.60;65.00;;;;;;10560690;28;20469;-48
2021/05/29 20:51:19;;;;;;;4.05;2.80;;;18.60;64.90;;;;;;10527095;28;20032;-50
2021/05/29 20:56:20;;;;;;;5.30;3.13;;;18.60;64.90;;;;;;10566481;28;20467;-51
2021/05/29 21:01:22;;;;;;;6.30;3.20;;;18.60;64.90;;;;;;10551308;28;20088;-49
2021/05/29 21:06:23;;;;;;;5.82;3.35;;;18.60;64.90;;;;;;10541131;28;20495;-49
2021/05/29 21:11:28;;;;;;;5.93;2.97;;;18.60;65.00;;;;;;10541804;28;20406;-47
2021/05/29 21:21:59;;;;;;;5.15;2.88;;;18.60;65.00;;;;;;10532978;28;20024;-50
2021/05/29 21:26:59;;;;;;;5.63;3.08;;;18.60;65.00;;;;;;10540533;28;20452;-47
2021/05/29 21:32:00;;;;;;;7.63;3.38;;;18.60;64.90;;;;;;10570208;28;20414;-47
2021/05/29 21:37:01;;;;;;;4.75;3.38;;;18.50;64.80;;;;;;10541865;28;20067;-50
2021/05/29 21:42:03;;;;;;;5.43;3.40;;;18.60;64.90;;;;;;10548785;28;20055;-49
2021/05/29 21:52:23;;;;;;;4.43;3.10;;;18.50;64.80;;;;;;10578000;28;20391;-47
2021/05/29 21:57:24;;;;;;;5.57;3.38;;;18.50;64.80;;;;;;10545796;28;20040;-50
2021/05/29 22:02:24;;;;;;;4.78;3.33;;;18.50;64.80;;;;;;10539744;28;20475;-50
2021/05/29 22:07:25;;;;;;;4.55;3.00;;;18.50;64.80;;;;;;10548048;28;20066;-49
2021/05/29 22:12:38;;;;;;;5.15;3.38;;;18.50;64.80;;;;;;10539190;28;20093;-52
2021/05/29 22:33:20;;;;;;;3.53;3.03;;;18.50;64.80;;;;;;10574038;28;20040;-52
2021/05/29 22:38:23;;;;;;;3.90;2.88;;;18.50;64.80;;;;;;10547819;28;20075;-50
2021/05/29 22:43:24;;;;;;;4.55;3.15;;;18.50;64.70;;;;;;10546299;28;20043;-49
2021/05/29 22:48:25;;;;;;;3.80;3.08;;;18.50;64.70;;;;;;10547235;28;20030;-49
2021/05/29 22:53:26;;;;;;;4.00;3.53;;;18.50;64.70;;;;;;10550812;28;20103;-49
2021/05/29 22:58:26;;;;;;;4.90;3.60;;;18.50;64.70;;;;;;10559158;28;20089;-50
2021/05/29 23:03:27;;;;;;;3.60;2.80;;;18.50;64.70;;;;;;10550445;28;20028;-48
2021/05/29 23:08:28;;;;;;;4.47;3.30;;;18.50;64.70;;;;;;10560723;28;20475;-52
2021/05/29 23:13:28;;;;;;;3.97;2.97;;;18.50;64.70;;;;;;10573412;28;20435;-49
2021/05/29 23:18:29;;;;;;;4.50;2.90;;;18.50;64.70;;;;;;10587702;28;20110;-48
2021/05/29 23:23:30;;;;;;;3.78;3.15;;;18.50;64.70;;;;;;10564778;28;20111;-51
2021/05/29 23:28:30;;;;;;;4.07;3.13;;;18.50;64.70;;;;;;10545076;28;20458;-50
2021/05/29 23:33:31;;;;;;;4.47;3.03;;;18.50;64.60;;;;;;10562051;28;20038;-49
2021/05/29 23:38:32;;;;;;;3.65;2.72;;;18.40;64.50;;;;;;10526625;28;20052;-50
2021/05/29 23:43:33;;;;;;;6.38;3.90;;;18.40;64.50;;;;;;10557978;28;20038;-52
2021/05/29 23:48:33;;;;;;;3.10;2.75;;;18.40;64.50;;;;;;10544735;28;20128;-49
2021/05/29 23:53:34;;;;;;;3.63;2.83;;;18.40;64.50;;;;;;10544127;28;20036;-48
2021/05/29 23:58:39;;;;;;;3.35;2.85;;;18.40;64.50;;;;;;10544444;28;20433;-49
